Time;durP1;ratioP1;P1;durP2;ratioP2;P2;SDS_P1;SDS_P2;PMS_P1;PMS_P2;Temp;Humidity;BMP_temperature;BMP_pressure;BME280_temperature;BME280_humidity;BME280_pressure;Samples;Min_cycle;Max_cycle;Signal;HPM_P1;HPM_P2
2021/04/05 00:11:17;;;;;;;1999.90;999.90;;;5.60;95.90;;;;;;5062722;28;20538;-70
2021/04/05 00:13:44;;;;;;;1999.90;999.90;;;5.60;95.70;;;;;;5063037;28;20440;-70
2021/04/05 00:16:17;;;;;;;1999.90;999.90;;;5.60;97.10;;;;;;5066343;28;20044;-70
2021/04/05 00:18:45;;;;;;;1999.90;999.90;;;5.60;96.00;;;;;;5065154;28;20139;-70
2021/04/05 00:21:20;;;;;;;1999.90;999.90;;;5.60;95.30;;;;;;5067300;28;20428;-70
2021/04/05 00:23:48;;;;;;;1999.90;999.90;;;5.60;97.50;;;;;;5066234;28;20147;-70
2021/04/05 00:26:15;;;;;;;1999.90;999.90;;;5.60;95.30;;;;;;5063654;28;20147;-71
2021/04/05 00:28:41;;;;;;;1999.90;999.90;;;5.60;97.60;;;;;;5067050;28;20139;-70
2021/04/05 00:31:09;;;;;;;1999.90;999.90;;;5.60;96.70;;;;;;5062210;28;20052;-70
2021/04/05 00:33:35;;;;;;;1999.90;999.90;;;5.70;96.90;;;;;;5065344;28;20074;-71
2021/04/05 00:36:02;;;;;;;1999.90;999.90;;;5.60;97.30;;;;;;5068905;28;20124;-70
2021/04/05 00:38:28;;;;;;;1999.90;999.90;;;5.70;97.80;;;;;;5069274;28;20050;-71
2021/04/05 00:41:10;;;;;;;1999.90;999.90;;;5.70;96.60;;;;;;5060778;28;20527;-70
2021/04/05 00:43:38;;;;;;;1999.90;999.90;;;5.70;96.90;;;;;;5064640;28;20047;-70
2021/04/05 00:46:09;;;;;;;1999.90;999.90;;;5.60;96.80;;;;;;5068439;28;20041;-70
2021/04/05 00:48:36;;;;;;;1999.90;999.90;;;5.60;96.30;;;;;;5062352;28;20306;-71
2021/04/05 00:51:13;;;;;;;1999.90;999.90;;;5.60;97.30;;;;;;5066621;28;20052;-70
2021/04/05 00:53:44;;;;;;;1999.90;999.90;;;5.60;96.70;;;;;;5064180;28;20084;-70
2021/04/05 00:56:13;;;;;;;1999.90;999.90;;;5.60;96.80;;;;;;5062550;28;20456;-70
2021/04/05 00:58:39;;;;;;;1999.90;999.90;;;5.60;99.30;;;;;;5063068;28;20200;-71
2021/04/05 01:01:09;;;;;;;1999.90;999.90;;;5.60;98.50;;;;;;5061154;28;20051;-71
2021/04/05 01:03:39;;;;;;;1999.90;999.90;;;5.60;98.00;;;;;;5068203;28;20045;-70
2021/04/05 01:06:16;;;;;;;1999.90;999.90;;;5.60;97.80;;;;;;5055384;28;20086;-70
2021/04/05 01:08:43;;;;;;;1999.90;999.90;;;5.60;99.20;;;;;;5064313;28;20054;-70
2021/04/05 01:11:13;;;;;;;1999.90;999.90;;;5.60;98.90;;;;;;5063710;28;20671;-70
2021/04/05 01:13:40;;;;;;;1999.90;999.90;;;5.60;98.30;;;;;;5067289;28;20055;-71
2021/04/05 01:16:07;;;;;;;1999.90;999.90;;;5.70;97.10;;;;;;5063971;28;20052;-71
2021/04/05 01:18:34;;;;;;;1999.90;999.90;;;5.70;98.10;;;;;;5062199;28;20377;-70
2021/04/05 01:21:02;;;;;;;1999.90;999.90;;;5.70;98.80;;;;;;5063273;28;20147;-70
2021/04/05 01:23:29;;;;;;;1999.90;999.90;;;5.70;98.60;;;;;;5059236;28;20144;-70
2021/04/05 01:25:56;;;;;;;1999.90;999.90;;;5.80;98.20;;;;;;5064154;28;20097;-70
2021/04/05 01:28:23;;;;;;;1999.90;999.90;;;5.80;99.60;;;;;;5063125;28;20132;-71
2021/04/05 01:30:52;;;;;;;1999.90;999.90;;;5.90;99.90;;;;;;5063442;28;20052;-70
2021/04/05 01:33:33;;;;;;;1999.90;999.90;;;5.90;99.90;;;;;;5058519;28;20055;-71
2021/04/05 01:36:02;;;;;;;1999.90;999.90;;;6.00;99.80;;;;;;5062647;28;20067;-71
2021/04/05 01:38:33;;;;;;;;;;;6.00;99.90;;;;;;5063688;28;20045;-71
2021/04/05 01:41:04;;;;;;;1999.90;999.90;;;6.00;99.90;;;;;;5079812;28;19921;-70
2021/04/05 01:43:30;;;;;;;1999.90;999.90;;;6.00;99.90;;;;;;5066226;28;20075;-70
2021/04/05 01:45:58;;;;;;;1999.90;999.90;;;6.00;99.90;;;;;;5064809;28;20098;-70
2021/04/05 01:48:27;;;;;;;1999.90;999.90;;;6.10;99.90;;;;;;5066759;28;20049;-70
2021/04/05 01:51:04;;;;;;;1999.90;999.90;;;6.10;99.90;;;;;;5063474;28;20062;-70
2021/04/05 01:53:31;;;;;;;1999.90;999.90;;;6.10;99.90;;;;;;5060021;28;20044;-70
2021/04/05 01:56:06;;;;;;;1999.90;999.90;;;6.20;99.90;;;;;;5066173;28;20068;-70
2021/04/05 01:58:36;;;;;;;1999.90;999.90;;;6.20;99.80;;;;;;5064272;28;20140;-69
2021/04/05 02:01:07;;;;;;;1999.90;999.90;;;6.20;99.90;;;;;;5059624;28;20043;-70
2021/04/05 02:03:34;;;;;;;1999.90;999.90;;;6.20;99.90;;;;;;5066354;28;20518;-71
2021/04/05 02:06:08;;;;;;;1999.90;999.90;;;6.20;99.40;;;;;;5067962;28;20040;-70
2021/04/05 02:08:36;;;;;;;1999.90;999.90;;;6.30;99.90;;;;;;5070610;28;20048;-70
2021/04/05 02:11:12;;;;;;;1999.90;999.90;;;6.30;99.30;;;;;;5070515;28;20040;-70
2021/04/05 02:13:40;;;;;;;1999.90;999.90;;;6.30;98.80;;;;;;5069846;28;20098;-70
2021/04/05 02:16:07;;;;;;;1999.90;999.90;;;6.30;99.00;;;;;;5066736;28;20119;-70
2021/04/05 02:18:36;;;;;;;1999.90;999.90;;;6.30;98.90;;;;;;5064481;28;20206;-70
2021/04/05 02:21:02;;;;;;;1999.90;999.90;;;6.30;98.80;;;;;;5066994;28;20052;-70
2021/04/05 02:23:29;;;;;;;1999.90;999.90;;;6.30;99.10;;;;;;5067064;28;20059;-71
2021/04/05 02:26:10;;;;;;;1999.90;999.90;;;6.30;98.50;;;;;;5068263;28;20056;-70
2021/04/05 02:28:38;;;;;;;1999.90;999.90;;;6.40;98.00;;;;;;5067835;28;20531;-71
2021/04/05 02:31:07;;;;;;;1999.90;999.90;;;6.40;98.10;;;;;;5062952;28;20056;-70
2021/04/05 02:33:43;;;;;;;1999.90;999.90;;;6.40;98.00;;;;;;5069005;28;20036;-70
2021/04/05 02:36:13;;;;;;;1999.90;999.90;;;6.40;98.10;;;;;;5070716;28;20059;-70
2021/04/05 02:38:44;;;;;;;1999.90;999.90;;;6.40;97.30;;;;;;5069867;28;20117;-71
2021/04/05 02:41:12;;;;;;;1999.90;999.90;;;6.50;97.80;;;;;;5065993;28;20064;-70
2021/04/05 02:43:40;;;;;;;1999.90;999.90;;;6.50;99.40;;;;;;5062084;28;20052;-70
2021/04/05 02:46:12;;;;;;;1999.90;999.90;;;6.60;99.20;;;;;;5069314;28;20045;-70
2021/04/05 02:48:43;;;;;;;1999.90;999.90;;;6.70;99.30;;;;;;5070076;28;20044;-70
2021/04/05 02:51:09;;;;;;;1999.90;999.90;;;6.80;98.70;;;;;;5066106;28;20044;-70
2021/04/05 02:53:41;;;;;;;1999.90;999.90;;;6.90;98.50;;;;;;5066709;28;20484;-70
2021/04/05 02:56:10;;;;;;;1999.90;999.90;;;7.00;99.30;;;;;;5071255;28;20125;-70
2021/04/05 02:58:41;;;;;;;1999.90;999.90;;;7.10;99.20;;;;;;5068524;28;20045;-70
2021/04/05 03:01:09;;;;;;;1999.90;999.90;;;7.20;99.20;;;;;;5092463;28;20049;-71
2021/04/05 03:03:43;;;;;;;1999.90;999.90;;;7.30;99.30;;;;;;5067070;28;20080;-70
2021/04/05 03:06:13;;;;;;;1999.90;999.90;;;7.40;99.10;;;;;;5064765;28;20044;-70
2021/04/05 03:08:40;;;;;;;1999.90;999.90;;;7.50;99.30;;;;;;5068403;28;20052;-70
2021/04/05 03:11:07;;;;;;;1999.90;999.90;;;7.60;99.00;;;;;;5068199;28;20046;-70
2021/04/05 03:13:35;;;;;;;1999.90;999.90;;;7.60;98.40;;;;;;5068257;28;20080;-70
2021/04/05 03:16:09;;;;;;;1999.90;999.90;;;7.70;98.20;;;;;;5069209;28;20051;-70
2021/04/05 03:18:36;;;;;;;1999.90;999.90;;;7.70;98.20;;;;;;5070036;28;20484;-70
2021/04/05 03:21:06;;;;;;;1999.90;999.90;;;7.80;98.40;;;;;;5067916;28;20087;-71
2021/04/05 03:23:33;;;;;;;1999.90;999.90;;;7.80;99.30;;;;;;5070650;28;20484;-70
2021/04/05 03:25:59;;;;;;;1999.90;999.90;;;7.90;98.30;;;;;;5066613;28;20490;-70
2021/04/05 03:28:25;;;;;;;1999.90;999.90;;;7.90;98.80;;;;;;5067829;28;20131;-71
2021/04/05 03:31:01;;;;;;;1999.90;999.90;;;8.00;98.10;;;;;;5066321;28;20040;-70
2021/04/05 03:33:35;;;;;;;1999.90;999.90;;;8.00;97.80;;;;;;5066788;28;20055;-71
2021/04/05 03:36:12;;;;;;;1999.90;999.90;;;8.00;98.70;;;;;;5069590;28;20457;-70
2021/04/05 03:38:38;;;;;;;1999.90;999.90;;;8.00;98.70;;;;;;5061808;28;20041;-71
2021/04/05 03:41:10;;;;;;;1999.90;999.90;;;8.00;98.70;;;;;;5068103;28;20095;-70
2021/04/05 03:43:41;;;;;;;1999.90;999.90;;;8.10;98.40;;;;;;5068068;28;20059;-71
2021/04/05 03:46:17;;;;;;;1999.90;999.90;;;8.10;98.30;;;;;;5069218;28;20050;-71
2021/04/05 03:49:25;;;;;;;1999.90;999.90;;;8.10;98.60;;;;;;5066933;28;20388;-70
2021/04/05 03:52:02;;;;;;;1999.90;999.90;;;8.20;98.80;;;;;;5058503;28;20403;-71
2021/04/05 03:54:39;;;;;;;1999.90;999.90;;;8.20;99.10;;;;;;5066148;28;20106;-71
2021/04/05 03:57:07;;;;;;;1999.90;999.90;;;8.20;98.80;;;;;;5064652;28;20140;-71
2021/04/05 03:59:38;;;;;;;1999.90;999.90;;;8.20;98.70;;;;;;5064144;28;20049;-70
2021/04/05 04:02:13;;;;;;;1999.90;999.90;;;8.20;98.50;;;;;;5061930;28;20048;-71
2021/04/05 04:04:51;;;;;;;1999.90;999.90;;;8.30;98.70;;;;;;5065853;28;20087;-71
2021/04/05 04:07:30;;;;;;;1999.90;999.90;;;8.30;98.60;;;;;;5067123;28;20041;-71
2021/04/05 04:09:58;;;;;;;1999.90;999.90;;;8.30;99.00;;;;;;5064429;28;20329;-70
2021/04/05 04:12:26;;;;;;;1999.90;999.90;;;8.30;98.70;;;;;;5062782;28;20055;-70
2021/04/05 04:14:54;;;;;;;1999.90;999.90;;;8.30;98.80;;;;;;5063624;28;20048;-71
2021/04/05 04:17:21;;;;;;;1999.90;999.90;;;8.30;98.50;;;;;;5061223;28;20472;-70
2021/04/05 04:19:48;;;;;;;1999.90;999.90;;;8.40;98.60;;;;;;5071095;28;20053;-70
2021/04/05 04:22:17;;;;;;;1999.90;999.90;;;8.40;98.80;;;;;;5064955;28;20110;-70
2021/04/05 04:24:44;;;;;;;1999.90;999.90;;;8.40;98.80;;;;;;5069185;28;20079;-70
2021/04/05 04:27:14;;;;;;;1999.90;999.90;;;8.40;99.70;;;;;;5059231;28;20049;-70
2021/04/05 04:29:50;;;;;;;1999.90;999.90;;;8.30;98.70;;;;;;5065650;28;20498;-70
2021/04/05 04:32:17;;;;;;;1999.90;999.90;;;8.30;98.90;;;;;;5056789;28;20049;-70
2021/04/05 04:34:43;;;;;;;1999.90;999.90;;;8.20;98.90;;;;;;5057940;28;20047;-70
2021/04/05 04:37:10;;;;;;;1999.90;999.90;;;8.20;99.90;;;;;;5059073;28;20075;-71
2021/04/05 04:39:36;;;;;;;1999.90;999.90;;;8.10;99.30;;;;;;5056207;28;20049;-70
2021/04/05 04:42:03;;;;;;;1999.90;999.90;;;8.10;99.60;;;;;;5050704;28;20055;-71
2021/04/05 04:44:29;;;;;;;1999.90;999.90;;;8.10;99.50;;;;;;5061361;28;20059;-70
2021/04/05 04:46:55;;;;;;;1999.90;999.90;;;8.10;99.10;;;;;;5060991;28;20072;-70
2021/04/05 04:49:21;;;;;;;1999.90;999.90;;;8.10;98.90;;;;;;5058676;28;20048;-70
2021/04/05 04:51:48;;;;;;;1999.90;999.90;;;8.00;98.70;;;;;;5065985;28;20044;-70
2021/04/05 04:54:14;;;;;;;1999.90;999.90;;;8.10;98.50;;;;;;5062850;28;20483;-70
2021/04/05 04:56:40;;;;;;;1999.90;999.90;;;8.10;99.60;;;;;;5059998;28;20040;-70
2021/04/05 04:59:08;;;;;;;1999.90;999.90;;;8.10;99.10;;;;;;5065589;28;20051;-70
2021/04/05 05:01:44;;;;;;;1999.90;999.90;;;8.10;99.10;;;;;;5064261;28;20131;-70
2021/04/05 05:04:24;;;;;;;;;;;8.20;99.90;;;;;;5061397;28;20110;-70
2021/04/05 05:06:53;;;;;;;1999.90;999.90;;;8.20;99.90;;;;;;5053131;28;19924;-71
2021/04/05 05:09:20;;;;;;;1999.90;999.90;;;8.20;99.80;;;;;;5053190;28;20131;-70
2021/04/05 05:11:46;;;;;;;1999.90;999.90;;;8.20;99.70;;;;;;5065266;28;20044;-71
2021/04/05 05:14:15;;;;;;;1999.90;999.90;;;8.30;99.90;;;;;;5056586;28;20075;-71
2021/04/05 05:16:42;;;;;;;1999.90;999.90;;;8.30;99.00;;;;;;5055395;28;20049;-71
2021/04/05 05:19:09;;;;;;;1999.90;999.90;;;8.30;99.70;;;;;;5057874;28;20048;-70
2021/04/05 05:21:46;;;;;;;1999.90;999.90;;;8.30;99.50;;;;;;5058659;28;20040;-70
2021/04/05 05:24:16;;;;;;;1999.90;999.90;;;8.40;99.60;;;;;;5059279;28;20075;-70
2021/04/05 05:26:43;;;;;;;1999.90;999.90;;;8.20;98.70;;;;;;5056657;28;20059;-71
2021/04/05 05:29:12;;;;;;;1999.90;999.90;;;7.90;98.00;;;;;;5061587;28;20059;-70
2021/04/05 05:31:42;;;;;;;1999.90;999.90;;;7.60;97.50;;;;;;5057481;28;20045;-70
2021/04/05 05:34:13;;;;;;;1999.90;999.90;;;7.30;97.30;;;;;;5055319;28;20562;-70
2021/04/05 05:36:42;;;;;;;1999.90;999.90;;;7.00;97.30;;;;;;5060406;28;20051;-70
2021/04/05 05:39:10;;;;;;;1999.90;999.90;;;6.70;97.40;;;;;;5062260;28;20365;-70
2021/04/05 05:41:55;;;;;;;1999.90;999.90;;;6.40;97.80;;;;;;5056772;28;20052;-70
2021/04/05 05:44:45;;;;;;;1999.90;999.90;;;6.20;97.10;;;;;;5062243;28;20107;-70
2021/04/05 05:47:33;;;;;;;1999.90;999.90;;;6.10;96.90;;;;;;5082204;28;20049;-71
2021/04/05 05:50:30;;;;;;;1999.90;999.90;;;6.10;96.70;;;;;;5059458;28;20041;-70
2021/04/05 05:53:20;;;;;;;1999.90;999.90;;;6.00;96.50;;;;;;5058263;28;20482;-70
2021/04/05 05:56:21;;;;;;;1999.90;999.90;;;6.00;96.40;;;;;;5055594;28;20056;-70
2021/04/05 05:59:16;;;;;;;1999.90;999.90;;;6.00;96.80;;;;;;5060593;28;20043;-70
2021/04/05 06:01:51;;;;;;;1999.90;999.90;;;5.90;96.60;;;;;;5054824;28;20472;-71
2021/04/05 06:04:36;;;;;;;1999.90;999.90;;;6.00;96.60;;;;;;5043005;28;20040;-70
2021/04/05 06:07:15;;;;;;;1999.90;999.90;;;6.00;96.70;;;;;;5063568;28;20052;-70
2021/04/05 06:10:03;;;;;;;1999.90;999.90;;;5.90;96.90;;;;;;5061713;28;20052;-71
2021/04/05 06:12:40;;;;;;;1999.90;999.90;;;5.90;96.90;;;;;;5060905;28;20067;-70
2021/04/05 06:15:24;;;;;;;1999.90;999.90;;;5.90;97.10;;;;;;5061199;28;20127;-70
2021/04/05 06:18:18;;;;;;;1999.90;999.90;;;5.90;96.70;;;;;;5060563;28;20441;-70
2021/04/05 06:21:05;;;;;;;1999.90;999.90;;;5.90;97.70;;;;;;5045651;28;20534;-70
2021/04/05 06:23:51;;;;;;;1999.90;999.90;;;5.80;97.20;;;;;;5057877;28;20362;-70
2021/04/05 06:26:43;;;;;;;1999.90;999.90;;;5.80;97.00;;;;;;5065526;28;20063;-70
2021/04/05 06:29:16;;;;;;;1999.90;999.90;;;5.80;96.40;;;;;;5057307;28;20060;-70
2021/04/05 06:31:56;;;;;;;1999.90;999.90;;;5.80;96.80;;;;;;5051742;28;20119;-70
2021/04/05 06:34:36;;;;;;;1999.90;999.90;;;5.70;97.40;;;;;;5084020;28;20041;-70
2021/04/05 06:37:27;;;;;;;1999.90;999.90;;;5.70;96.90;;;;;;5053996;28;20053;-70
2021/04/05 06:40:07;;;;;;;1999.90;999.90;;;5.70;97.40;;;;;;5064688;28;20080;-70
2021/04/05 06:43:06;;;;;;;1999.90;999.90;;;5.70;96.70;;;;;;5061558;28;20084;-71
2021/04/05 06:45:42;;;;;;;1999.90;999.90;;;5.80;96.40;;;;;;5060058;28;20057;-70
2021/04/05 06:48:45;;;;;;;1999.90;999.90;;;5.80;96.40;;;;;;5057479;28;20139;-70
2021/04/05 06:51:40;;;;;;;1999.90;999.90;;;5.80;96.00;;;;;;5066221;28;20135;-70
2021/04/05 06:54:51;;;;;;;1999.90;999.90;;;5.70;97.30;;;;;;5062484;28;20487;-70
2021/04/05 06:57:26;;;;;;;1999.90;999.90;;;5.60;96.70;;;;;;5056837;28;20056;-70
2021/04/05 07:00:01;;;;;;;1999.90;999.90;;;5.50;96.90;;;;;;5060369;28;20057;-70
2021/04/05 07:03:06;;;;;;;1999.90;999.90;;;5.30;96.40;;;;;;5062810;28;20072;-70
2021/04/05 07:05:58;;;;;;;1999.90;999.90;;;5.20;97.30;;;;;;5065103;28;20052;-70
2021/04/05 07:08:34;;;;;;;1999.90;999.90;;;5.10;97.10;;;;;;5060580;28;20062;-70
2021/04/05 07:11:13;;;;;;;1999.90;999.90;;;5.10;97.10;;;;;;5071296;28;20036;-70
2021/04/05 07:13:48;;;;;;;1999.90;999.90;;;5.00;96.90;;;;;;5058050;28;20102;-70
2021/04/05 07:16:18;;;;;;;1999.90;999.90;;;5.00;96.90;;;;;;5071273;28;20040;-70
2021/04/05 07:19:13;;;;;;;1999.90;999.90;;;5.00;96.50;;;;;;5061781;28;20048;-70
2021/04/05 07:22:20;;;;;;;1999.90;999.90;;;5.00;96.80;;;;;;5066743;28;20048;-70
2021/04/05 07:25:01;;;;;;;1999.90;999.90;;;5.00;96.50;;;;;;5052397;28;20041;-70
2021/04/05 07:27:49;;;;;;;1999.90;999.90;;;5.00;96.20;;;;;;5060211;28;20824;-70
2021/04/05 07:30:27;;;;;;;1999.90;999.90;;;5.00;96.40;;;;;;5063905;28;20044;-70
2021/04/05 07:33:25;;;;;;;1999.90;999.90;;;4.90;96.20;;;;;;5067056;28;20128;-70
2021/04/05 07:36:43;;;;;;;1999.90;999.90;;;4.80;96.00;;;;;;5088458;28;20056;-71
2021/04/05 07:39:21;;;;;;;1999.90;999.90;;;4.80;96.60;;;;;;5055762;28;20044;-70
2021/04/05 07:41:53;;;;;;;1999.90;999.90;;;4.80;96.40;;;;;;5065199;28;20056;-70
2021/04/05 07:44:47;;;;;;;1999.90;999.90;;;4.80;96.70;;;;;;5066009;28;20188;-70
2021/04/05 07:47:33;;;;;;;1999.90;999.90;;;4.70;96.00;;;;;;5057258;28;20475;-70
2021/04/05 07:50:27;;;;;;;1999.90;999.90;;;4.60;95.80;;;;;;5067539;28;20388;-71
2021/04/05 07:53:20;;;;;;;1999.90;999.90;;;4.60;95.60;;;;;;5063262;28;20128;-70
2021/04/05 07:55:48;;;;;;;1999.90;999.90;;;4.60;95.80;;;;;;5066012;28;20047;-70
2021/04/05 07:58:48;;;;;;;1999.90;999.90;;;4.60;95.30;;;;;;5065627;28;20053;-70
2021/04/05 08:01:25;;;;;;;1999.90;999.90;;;4.60;95.10;;;;;;5061433;28;20132;-70
2021/04/05 08:04:29;;;;;;;1999.90;999.90;;;4.60;94.90;;;;;;5063557;28;20051;-70
2021/04/05 08:07:43;;;;;;;1999.90;999.90;;;4.60;95.00;;;;;;5059998;28;20114;-71
2021/04/05 08:10:18;;;;;;;1999.90;999.90;;;4.70;94.90;;;;;;5051947;28;20049;-70
2021/04/05 08:13:13;;;;;;;1999.90;999.90;;;4.70;94.80;;;;;;5061703;28;20044;-71
2021/04/05 08:16:10;;;;;;;1999.90;999.90;;;4.80;94.70;;;;;;5060592;28;20067;-70
2021/04/05 08:18:54;;;;;;;1999.90;999.90;;;4.90;94.70;;;;;;5066405;28;20067;-71
2021/04/05 08:21:33;;;;;;;1999.90;999.90;;;5.00;94.60;;;;;;5058579;28;20067;-70
2021/04/05 08:25:04;;;;;;;1999.90;999.90;;;5.00;94.70;;;;;;5058042;28;20068;-70
2021/04/05 08:27:40;;;;;;;1999.90;999.90;;;5.00;94.20;;;;;;5041585;28;20535;-70
2021/04/05 08:30:21;;;;;;;1999.90;999.90;;;4.90;94.00;;;;;;5061202;28;20067;-70
2021/04/05 08:33:17;;;;;;;1999.90;999.90;;;4.80;94.00;;;;;;5052180;28;20404;-70
2021/04/05 08:35:45;;;;;;;1999.90;999.90;;;4.80;94.00;;;;;;5053854;28;20086;-71
2021/04/05 08:38:20;;;;;;;1999.90;999.90;;;4.80;93.70;;;;;;5058092;28;20041;-70
2021/04/05 08:41:06;;;;;;;1999.90;999.90;;;4.80;93.40;;;;;;5055688;28;20055;-71
2021/04/05 08:43:43;;;;;;;1999.90;999.90;;;5.00;93.70;;;;;;5055229;28;20045;-70
2021/04/05 08:46:19;;;;;;;1999.90;999.90;;;5.10;93.50;;;;;;5058419;28;20071;-71
2021/04/05 08:48:51;;;;;;;1999.90;999.90;;;5.30;93.90;;;;;;5057713;28;20048;-71
2021/04/05 08:51:29;;;;;;;1999.90;999.90;;;5.40;93.80;;;;;;5064277;28;20047;-70
2021/04/05 08:53:59;;;;;;;1999.90;999.90;;;5.50;93.90;;;;;;5067852;28;20048;-70
2021/04/05 08:56:30;;;;;;;1999.90;999.90;;;5.50;93.20;;;;;;5065197;28;20052;-71
2021/04/05 08:59:08;;;;;;;1999.90;999.90;;;5.60;93.40;;;;;;5068070;28;20051;-71
2021/04/05 09:01:48;;;;;;;1999.90;999.90;;;5.60;93.70;;;;;;5064391;28;20060;-71
2021/04/05 09:04:22;;;;;;;1999.90;999.90;;;5.70;92.50;;;;;;5066741;28;20036;-70
2021/04/05 09:07:03;;;;;;;1999.90;999.90;;;5.70;93.10;;;;;;5061416;28;20062;-70
2021/04/05 09:09:33;;;;;;;1999.90;999.90;;;5.60;92.60;;;;;;5061863;28;20380;-71
2021/04/05 09:12:01;;;;;;;1999.90;999.90;;;5.50;93.10;;;;;;5066543;28;20040;-71
2021/04/05 09:14:33;;;;;;;1999.90;999.90;;;5.40;93.10;;;;;;5062683;28;20045;-71
2021/04/05 09:17:33;;;;;;;1999.90;999.90;;;5.10;92.60;;;;;;5055586;28;20048;-70
2021/04/05 09:20:23;;;;;;;1999.90;999.90;;;4.80;92.60;;;;;;5059282;28;20044;-70
2021/04/05 09:23:11;;;;;;;1999.90;999.90;;;4.50;92.50;;;;;;5061867;28;20063;-70
2021/04/05 09:25:55;;;;;;;1999.90;999.90;;;4.50;92.70;;;;;;5057275;28;20059;-71
2021/04/05 09:28:24;;;;;;;1999.90;999.90;;;4.50;93.00;;;;;;5068459;28;20472;-71
2021/04/05 09:31:10;;;;;;;;;;;4.70;93.30;;;;;;5066788;28;20468;-71
2021/04/05 09:34:16;;;;;;;1999.90;999.90;;;4.80;93.40;;;;;;5064662;28;20294;-70
2021/04/05 09:36:48;;;;;;;1999.90;999.90;;;5.00;93.50;;;;;;5043995;28;20510;-70
2021/04/05 09:39:32;;;;;;;1999.90;999.90;;;5.10;93.50;;;;;;5066717;28;20512;-70
2021/04/05 09:42:33;;;;;;;1999.90;999.90;;;5.20;93.60;;;;;;5063412;28;20444;-70
2021/04/05 09:45:02;;;;;;;1999.90;999.90;;;5.30;93.60;;;;;;5065800;28;20044;-70
2021/04/05 09:47:55;;;;;;;1999.90;999.90;;;5.40;93.60;;;;;;5063675;28;20126;-70
2021/04/05 09:50:59;;;;;;;1999.90;999.90;;;5.50;93.70;;;;;;5064147;28;20049;-70
2021/04/05 09:53:44;;;;;;;1999.90;999.90;;;5.70;93.00;;;;;;5078227;28;20914;-70
2021/04/05 09:56:19;;;;;;;1999.90;999.90;;;5.70;92.30;;;;;;5066511;28;20135;-70
2021/04/05 09:58:57;;;;;;;1999.90;999.90;;;5.80;92.30;;;;;;5055861;28;20047;-71
2021/04/05 10:01:25;;;;;;;1999.90;999.90;;;5.80;91.40;;;;;;5063500;28;20502;-70
2021/04/05 10:04:04;;;;;;;1999.90;999.90;;;5.90;91.80;;;;;;5059431;28;20076;-70
2021/04/05 10:06:32;;;;;;;;;;;6.10;90.80;;;;;;5064234;28;20063;-71
2021/04/05 10:08:59;;;;;;;1999.90;999.90;;;6.10;89.60;;;;;;5063757;28;19928;-71
2021/04/05 10:11:32;;;;;;;1999.90;999.90;;;6.10;90.70;;;;;;5065016;28;20048;-70
2021/04/05 10:14:14;;;;;;;1999.90;999.90;;;6.00;91.00;;;;;;5064185;28;20071;-71
2021/04/05 10:16:52;;;;;;;1999.90;999.90;;;5.80;91.20;;;;;;5065424;28;20534;-71
2021/04/05 10:19:27;;;;;;;1999.90;999.90;;;5.70;90.90;;;;;;5065535;28;20051;-71
2021/04/05 10:22:04;;;;;;;1999.90;999.90;;;5.60;90.70;;;;;;5068803;28;20044;-71
2021/04/05 10:24:33;;;;;;;1999.90;999.90;;;5.50;90.60;;;;;;5059938;28;20107;-70
2021/04/05 10:27:02;;;;;;;;;;;5.30;90.20;;;;;;5060480;28;20123;-70
2021/04/05 10:29:29;;;;;;;;;;;5.10;87.60;;;;;;5064114;28;19928;-70
2021/04/05 10:32:01;;;;;;;1999.90;999.90;;;5.00;81.10;;;;;;5069695;28;19926;-70
2021/04/05 10:34:28;;;;;;;1999.90;999.90;;;5.00;88.20;;;;;;5069680;28;20739;-71
2021/04/05 10:36:59;;;;;;;1999.90;999.90;;;5.40;90.70;;;;;;5066212;28;20135;-70
2021/04/05 10:39:27;;;;;;;1999.90;999.90;;;5.90;92.10;;;;;;5070710;28;20074;-71
2021/04/05 10:42:08;;;;;;;1999.90;999.90;;;6.30;93.00;;;;;;5069080;28;20047;-71
2021/04/05 10:44:43;;;;;;;1999.90;999.90;;;6.70;91.50;;;;;;5066765;28;20128;-70
2021/04/05 10:47:14;;;;;;;1999.90;999.90;;;7.00;92.20;;;;;;5068097;28;20129;-71
2021/04/05 10:49:41;;;;;;;1999.90;999.90;;;7.20;93.50;;;;;;5067005;28;20047;-70
2021/04/05 10:52:10;;;;;;;1999.90;999.90;;;7.30;94.10;;;;;;5068234;28;20083;-71
2021/04/05 10:54:51;;;;;;;1999.90;999.90;;;7.40;93.20;;;;;;5068537;28;20045;-71
2021/04/05 10:57:39;;;;;;;1999.90;999.90;;;7.30;92.40;;;;;;5059540;28;20044;-71
2021/04/05 11:00:14;;;;;;;1999.90;999.90;;;7.30;89.10;;;;;;5058389;28;20420;-71
2021/04/05 11:02:46;;;;;;;1999.90;999.90;;;7.40;90.40;;;;;;5059246;28;20048;-70
2021/04/05 11:05:18;;;;;;;1999.90;999.90;;;7.60;90.90;;;;;;5061395;28;20058;-70
2021/04/05 11:07:47;;;;;;;1999.90;999.90;;;7.50;85.90;;;;;;5061615;28;20048;-71
2021/04/05 11:10:20;;;;;;;1999.90;999.90;;;7.20;84.60;;;;;;5055131;28;20048;-70
2021/04/05 11:12:51;;;;;;;1999.90;999.90;;;6.90;85.40;;;;;;5056692;28;20059;-71
2021/04/05 11:15:20;;;;;;;1999.90;999.90;;;6.30;86.30;;;;;;5061781;28;20049;-70
2021/04/05 11:17:50;;;;;;;1999.90;999.90;;;6.00;87.30;;;;;;5056935;28;20532;-71
2021/04/05 11:20:20;;;;;;;1999.90;999.90;;;6.20;90.00;;;;;;5060057;28;20053;-71
2021/04/05 11:23:03;;;;;;;1999.90;999.90;;;6.80;91.50;;;;;;5051481;28;20164;-71
2021/04/05 11:25:33;;;;;;;1999.90;999.90;;;7.40;91.20;;;;;;5065143;28;20484;-71
2021/04/05 11:28:14;;;;;;;1999.90;999.90;;;7.90;94.70;;;;;;5059292;28;20079;-71
2021/04/05 11:30:42;;;;;;;1999.90;999.90;;;8.50;95.40;;;;;;5061639;28;20053;-71
2021/04/05 11:33:11;;;;;;;1999.90;999.90;;;8.90;96.20;;;;;;5049699;28;20059;-71
2021/04/05 11:35:40;;;;;;;1999.90;999.90;;;9.20;92.50;;;;;;5055317;28;20059;-71
2021/04/05 11:38:10;;;;;;;;;;;9.20;94.50;;;;;;5055830;28;20040;-71
2021/04/05 11:40:37;;;;;;;1999.90;999.90;;;9.10;89.20;;;;;;5056573;28;20405;-71
2021/04/05 11:43:13;;;;;;;1999.90;999.90;;;8.90;91.10;;;;;;5052187;28;20081;-71
2021/04/05 11:45:42;;;;;;;1999.90;999.90;;;8.40;78.20;;;;;;5054820;28;21071;-71
2021/04/05 11:48:23;;;;;;;1999.90;999.90;;;8.00;85.50;;;;;;5054838;28;20076;-70
2021/04/05 11:50:50;;;;;;;1999.90;999.90;;;7.70;76.30;;;;;;5054265;28;20048;-71
2021/04/05 11:53:20;;;;;;;1999.90;999.90;;;7.50;83.50;;;;;;5084051;28;20053;-71
2021/04/05 11:55:49;;;;;;;1999.90;999.90;;;7.50;81.60;;;;;;5058794;28;20040;-71
2021/04/05 11:58:19;;;;;;;1999.90;999.90;;;7.60;85.20;;;;;;5056059;28;20531;-70
2021/04/05 12:00:48;;;;;;;;;;;7.80;82.40;;;;;;5066615;28;20088;-70
2021/04/05 12:03:25;;;;;;;1999.90;999.90;;;7.80;76.50;;;;;;5065807;28;20015;-70
2021/04/05 12:06:09;;;;;;;1999.90;999.90;;;7.80;79.30;;;;;;5065805;28;20150;-71
2021/04/05 12:08:48;;;;;;;1999.90;999.90;;;7.80;81.90;;;;;;5065822;28;20049;-71
2021/04/05 12:11:16;;;;;;;1999.90;999.90;;;7.80;82.30;;;;;;5068129;28;20400;-71
2021/04/05 12:21:38;;;;;;;1999.90;999.90;;;7.30;81.30;;;;;;5052761;28;20556;-71
2021/04/05 12:24:05;;;;;;;1999.90;999.90;;;6.50;80.80;;;;;;5064131;28;20037;-71
2021/04/05 12:26:33;;;;;;;1999.90;999.90;;;6.10;81.60;;;;;;5066175;28;20056;-71
2021/04/05 12:29:09;;;;;;;1999.90;999.90;;;5.90;82.90;;;;;;5064447;28;20499;-70
2021/04/05 12:31:37;;;;;;;1999.90;999.90;;;6.00;85.10;;;;;;5061580;28;20049;-71
2021/04/05 12:34:09;;;;;;;1999.90;999.90;;;6.40;87.50;;;;;;5063708;28;20132;-71
2021/04/05 12:36:37;;;;;;;1999.90;999.90;;;6.70;90.10;;;;;;5065483;28;20053;-71
2021/04/05 12:39:07;;;;;;;1999.90;999.90;;;6.90;90.10;;;;;;5065176;28;20120;-71
2021/04/05 12:41:37;;;;;;;1999.90;999.90;;;6.80;89.30;;;;;;5064100;28;20052;-71
2021/04/05 12:44:07;;;;;;;1999.90;999.90;;;6.80;86.80;;;;;;5068069;28;20132;-71
2021/04/05 12:46:36;;;;;;;1999.90;999.90;;;6.80;86.90;;;;;;5062365;28;20625;-71
2021/04/05 12:49:03;;;;;;;1999.90;999.90;;;7.00;86.20;;;;;;5065682;28;20087;-71
2021/04/05 12:51:30;;;;;;;1999.90;999.90;;;7.20;84.50;;;;;;5065440;28;20049;-71
2021/04/05 12:54:05;;;;;;;1999.90;999.90;;;7.20;82.20;;;;;;5061101;28;20138;-70
2021/04/05 12:56:33;;;;;;;1999.90;999.90;;;7.20;82.50;;;;;;5060590;28;20128;-70
2021/04/05 12:59:01;;;;;;;1999.90;999.90;;;7.00;79.30;;;;;;5046866;28;20047;-71
2021/04/05 13:01:39;;;;;;;1999.90;999.90;;;6.70;76.90;;;;;;5056139;28;20048;-71
2021/04/05 13:04:09;;;;;;;1999.90;999.90;;;6.50;77.70;;;;;;5064296;28;20248;-70
2021/04/05 13:06:43;;;;;;;1999.90;999.90;;;6.20;75.70;;;;;;5064771;28;20372;-70
2021/04/05 13:09:17;;;;;;;1999.90;999.90;;;5.90;75.80;;;;;;5065892;28;20109;-70